createdAt,value
2023-01-08T00:00:09.757Z,34.20
2023-01-08T00:02:57.132Z,38.67
2023-01-08T00:05:24.129Z,29.67
2023-01-08T00:07:51.343Z,34.90
2023-01-08T00:10:18.236Z,24.40
2023-01-08T00:12:45.414Z,24.07
2023-01-08T00:15:12.386Z,22.80
2023-01-08T00:17:39.687Z,21.80
2023-01-08T00:20:06.991Z,21.90
2023-01-08T00:22:34.185Z,37.37
2023-01-08T00:25:01.036Z,24.90
2023-01-08T00:27:28.297Z,22.60
2023-01-08T00:29:55.279Z,28.73
2023-01-08T00:32:22.479Z,24.07
2023-01-08T00:34:49.475Z,23.83
2023-01-08T00:37:20.225Z,30.53
2023-01-08T00:39:47.056Z,27.43
2023-01-08T00:42:14.365Z,23.90
2023-01-08T00:44:41.300Z,23.17
2023-01-08T00:47:08.549Z,23.33
2023-01-08T00:49:35.427Z,21.87
2023-01-08T00:52:02.627Z,21.70
2023-01-08T00:54:29.812Z,21.73
2023-01-08T00:56:56.965Z,20.43
2023-01-08T00:59:23.897Z,22.43
2023-01-08T01:01:52.964Z,19.43
2023-01-08T01:04:20.819Z,26.52
2023-01-08T01:06:48.055Z,22.53
2023-01-08T01:09:15.022Z,21.80
2023-01-08T01:11:42.317Z,23.00
2023-01-08T01:14:09.909Z,22.77
2023-01-08T01:16:37.261Z,24.40
2023-01-08T01:19:04.259Z,22.40
2023-01-08T01:21:32.532Z,22.03
2023-01-08T01:24:02.198Z,22.23
2023-01-08T01:26:30.513Z,19.67
2023-01-08T01:28:58.430Z,19.43
2023-01-08T01:31:27.105Z,19.93
2023-01-08T01:33:54.125Z,15.57
2023-01-08T01:36:26.091Z,15.60
2023-01-08T01:38:55.745Z,17.30
2023-01-08T01:41:28.661Z,15.73
2023-01-08T01:43:58.035Z,15.67
2023-01-08T01:46:38.793Z,16.33
2023-01-08T01:49:10.687Z,16.10
2023-01-08T01:51:42.430Z,17.10
2023-01-08T01:54:13.037Z,14.30
2023-01-08T01:56:40.945Z,15.00
2023-01-08T01:59:08.015Z,14.80
2023-01-08T02:01:35.719Z,15.50
2023-01-08T02:04:03.036Z,15.93
2023-01-08T02:06:42.681Z,15.13
2023-01-08T02:09:37.551Z,14.87
2023-01-08T02:12:18.748Z,15.03
2023-01-08T02:14:52.307Z,14.07
2023-01-08T02:17:45.589Z,15.80
2023-01-08T02:20:32.709Z,14.60
2023-01-08T02:23:14.454Z,14.27
2023-01-08T02:26:06.455Z,15.23
2023-01-08T02:28:40.133Z,16.57
2023-01-08T02:31:07.635Z,15.73
2023-01-08T02:33:35.921Z,14.00
2023-01-08T02:36:35.873Z,14.13
2023-01-08T02:39:20.981Z,16.17
2023-01-08T02:42:04.482Z,18.00
2023-01-08T02:44:34.446Z,19.47
2023-01-08T02:47:05.875Z,17.83
2023-01-08T02:49:38.580Z,14.30
2023-01-08T02:52:07.553Z,13.60
2023-01-08T02:54:36.023Z,13.60
2023-01-08T02:57:08.319Z,10.77
2023-01-08T02:59:37.268Z,11.57
2023-01-08T03:02:04.770Z,11.98
2023-01-08T03:04:39.588Z,10.63
2023-01-08T03:07:06.511Z,28.87
2023-01-08T03:09:34.609Z,13.43
2023-01-08T03:12:24.693Z,12.17
2023-01-08T03:15:01.330Z,11.70
2023-01-08T03:17:35.936Z,12.53
2023-01-08T03:20:09.251Z,12.00
2023-01-08T03:22:40.872Z,11.83
2023-01-08T03:25:10.068Z,13.57
2023-01-08T03:27:42.024Z,12.90
2023-01-08T03:30:11.473Z,13.03
2023-01-08T03:32:42.133Z,12.87
2023-01-08T03:35:12.481Z,13.07
2023-01-08T03:37:44.225Z,13.53
2023-01-08T03:40:17.064Z,12.97
2023-01-08T03:42:44.061Z,14.20
2023-01-08T03:45:11.447Z,13.40
2023-01-08T03:47:40.608Z,12.93
2023-01-08T03:50:14.547Z,13.47
2023-01-08T03:52:41.478Z,16.70
2023-01-08T03:55:09.118Z,16.20
2023-01-08T03:57:36.049Z,15.10
2023-01-08T04:00:04.589Z,15.53
2023-01-08T04:02:31.684Z,15.88
2023-01-08T04:04:58.924Z,20.13
2023-01-08T04:07:25.876Z,23.50
2023-01-08T04:09:53.112Z,21.30
2023-01-08T04:12:20.041Z,19.83
2023-01-08T04:14:47.299Z,18.67
2023-01-08T04:17:14.616Z,18.80
2023-01-08T04:19:41.744Z,18.07
2023-01-08T04:22:10.850Z,16.57
2023-01-08T04:24:38.368Z,17.50
2023-01-08T04:27:05.612Z,18.17
2023-01-08T04:29:32.863Z,18.33
2023-01-08T04:32:00.451Z,17.53
2023-01-08T04:34:27.688Z,17.57
2023-01-08T04:36:54.578Z,18.20
2023-01-08T04:39:21.751Z,16.87
2023-01-08T04:41:48.602Z,16.70
2023-01-08T04:44:15.834Z,17.13
2023-01-08T04:46:42.822Z,16.20
2023-01-08T04:49:11.657Z,16.77
2023-01-08T04:51:38.751Z,17.23
2023-01-08T04:54:06.277Z,16.47
2023-01-08T04:56:33.197Z,16.73
2023-01-08T04:59:00.486Z,17.60
2023-01-08T05:01:28.464Z,16.67
2023-01-08T05:03:56.521Z,18.30
2023-01-08T05:06:24.002Z,19.80
2023-01-08T05:08:51.256Z,18.87
2023-01-08T05:11:18.263Z,18.93
2023-01-08T05:13:49.064Z,19.33
2023-01-08T05:16:16.313Z,17.70
2023-01-08T05:18:44.582Z,18.97
2023-01-08T05:21:11.919Z,18.80
2023-01-08T05:23:39.520Z,18.33
2023-01-08T05:26:07.429Z,19.03
2023-01-08T05:28:34.987Z,17.53
2023-01-08T05:31:01.933Z,17.43
2023-01-08T05:33:29.189Z,19.33
2023-01-08T05:35:56.680Z,17.83
2023-01-08T05:38:23.948Z,17.40
2023-01-08T05:40:54.330Z,18.27
2023-01-08T05:43:21.744Z,20.17
2023-01-08T05:45:48.595Z,19.73
2023-01-08T05:48:15.816Z,18.97
2023-01-08T05:50:42.675Z,19.33
2023-01-08T05:53:10.315Z,19.77
2023-01-08T05:55:37.255Z,18.90
2023-01-08T05:58:05.429Z,18.90
2023-01-08T06:00:34.447Z,19.30
2023-01-08T06:03:01.758Z,16.30
2023-01-08T06:05:30.798Z,18.57
2023-01-08T06:10:25.487Z,17.70
2023-01-08T06:12:52.738Z,16.37
2023-01-08T06:15:19.737Z,17.47
2023-01-08T06:17:46.876Z,17.73
2023-01-08T06:20:13.805Z,17.80
2023-01-08T06:22:40.979Z,17.20
2023-01-08T06:25:08.116Z,17.17
2023-01-08T06:27:35.288Z,17.63
2023-01-08T06:30:02.133Z,17.70
2023-01-08T06:32:29.388Z,17.97
2023-01-08T06:34:56.281Z,17.93
2023-01-08T06:37:23.449Z,16.90
2023-01-08T06:39:50.361Z,19.03
2023-01-08T06:42:17.625Z,20.67
2023-01-08T06:44:44.569Z,16.47
2023-01-08T06:47:11.769Z,20.20
2023-01-08T06:49:38.727Z,17.37
2023-01-08T06:52:05.942Z,17.53
2023-01-08T06:54:32.840Z,17.50
2023-01-08T06:57:00.072Z,16.23
2023-01-08T06:59:26.957Z,16.80
2023-01-08T07:01:54.531Z,16.23
2023-01-08T07:04:21.494Z,17.23
2023-01-08T07:06:48.741Z,17.50
2023-01-08T07:09:15.933Z,18.90
2023-01-08T07:11:43.208Z,17.97
2023-01-08T07:14:10.148Z,17.53
2023-01-08T07:16:37.539Z,18.37
2023-01-08T07:19:04.654Z,19.97
2023-01-08T07:21:32.118Z,18.37
2023-01-08T07:23:59.764Z,18.73
2023-01-08T07:26:27.775Z,17.33
2023-01-08T07:28:54.680Z,15.77
2023-01-08T07:31:22.212Z,17.17
2023-01-08T07:33:49.215Z,17.43
2023-01-08T07:36:17.930Z,17.90
2023-01-08T07:38:44.796Z,21.60
2023-01-08T07:41:13.368Z,19.00
2023-01-08T07:43:40.275Z,17.55
2023-01-08T07:46:07.535Z,18.33
2023-01-08T07:48:34.571Z,18.50
2023-01-08T07:51:06.508Z,17.47
2023-01-08T07:53:33.999Z,17.03
2023-01-08T07:56:05.924Z,17.47
2023-01-08T07:58:33.076Z,19.63
2023-01-08T08:01:00.853Z,16.60
2023-01-08T08:03:27.974Z,18.37
2023-01-08T08:05:55.207Z,18.83
2023-01-08T08:08:22.081Z,19.97
2023-01-08T08:10:49.263Z,18.93
2023-01-08T08:13:16.164Z,18.57
2023-01-08T08:15:43.483Z,17.47
2023-01-08T08:18:11.061Z,18.13
2023-01-08T08:20:39.322Z,17.40
2023-01-08T08:23:09.548Z,18.80
2023-01-08T08:25:37.348Z,19.17
2023-01-08T08:28:05.146Z,17.33
2023-01-08T08:30:34.867Z,38.25
2023-01-08T08:33:04.124Z,19.23
2023-01-08T08:35:32.516Z,23.37
2023-01-08T08:38:00.036Z,25.83
2023-01-08T08:40:27.874Z,24.00
2023-01-08T08:42:59.765Z,34.93
2023-01-08T08:45:27.880Z,62.87
2023-01-08T08:47:54.972Z,38.47
2023-01-08T08:50:23.023Z,35.60
2023-01-08T08:52:50.020Z,20.97
2023-01-08T08:55:17.662Z,21.43
2023-01-08T08:57:46.286Z,17.90
2023-01-08T09:00:14.784Z,18.40
2023-01-08T09:02:41.796Z,15.93
2023-01-08T09:05:09.678Z,18.83
2023-01-08T09:07:36.667Z,19.27
2023-01-08T09:10:04.721Z,19.87
2023-01-08T09:12:31.587Z,17.93
2023-01-08T09:14:58.821Z,21.47
2023-01-08T09:17:26.102Z,19.27
2023-01-08T09:19:53.571Z,18.47
2023-01-08T09:22:20.740Z,18.17
2023-01-08T09:24:48.071Z,17.43
2023-01-08T09:27:15.453Z,16.20
2023-01-08T09:29:42.771Z,19.00
2023-01-08T09:32:10.118Z,18.97
2023-01-08T09:34:38.306Z,17.30
2023-01-08T09:37:06.145Z,17.73
2023-01-08T09:39:33.875Z,16.67
2023-01-08T09:42:06.053Z,17.40
2023-01-08T09:44:40.717Z,16.47
2023-01-08T09:47:27.886Z,22.13
2023-01-08T09:50:00.244Z,18.40
2023-01-08T09:52:27.334Z,15.67
2023-01-08T09:54:54.844Z,14.33
2023-01-08T09:57:22.693Z,13.97
2023-01-08T09:59:50.555Z,12.50
2023-01-08T10:02:25.048Z,11.37
2023-01-08T10:04:58.537Z,12.10
2023-01-08T10:07:27.393Z,12.40
2023-01-08T10:12:31.207Z,12.30
2023-01-08T10:15:13.846Z,13.67
2023-01-08T10:17:46.537Z,13.03
2023-01-08T10:20:19.609Z,12.63
2023-01-08T10:22:50.211Z,13.53
2023-01-08T10:25:27.412Z,13.13
2023-01-08T10:27:59.207Z,13.63
2023-01-08T10:30:40.132Z,11.93
2023-01-08T10:33:45.328Z,12.73
2023-01-08T10:36:17.349Z,12.10
2023-01-08T10:38:56.167Z,12.47
2023-01-08T10:44:01.836Z,14.23
2023-01-08T10:46:35.943Z,12.20
2023-01-08T10:49:05.685Z,12.17
2023-01-08T10:51:33.558Z,12.37
2023-01-08T10:54:13.999Z,11.50
2023-01-08T10:56:43.844Z,13.07
2023-01-08T10:59:20.810Z,16.43
2023-01-08T11:01:49.395Z,102.60
2023-01-08T11:04:24.091Z,21.92
2023-01-08T11:06:51.342Z,20.40
2023-01-08T11:09:27.967Z,17.87
2023-01-08T11:11:55.594Z,16.57
2023-01-08T11:14:36.006Z,16.80
2023-01-08T11:17:11.412Z,14.60
2023-01-08T11:19:39.989Z,13.87
2023-01-08T11:22:19.596Z,15.73
2023-01-08T11:24:50.391Z,15.17
2023-01-08T11:27:28.164Z,17.43
2023-01-08T11:30:14.695Z,15.17
2023-01-08T11:33:09.448Z,15.43
2023-01-08T11:35:48.778Z,24.57
2023-01-08T11:38:16.693Z,21.47
2023-01-08T11:41:13.688Z,16.37
2023-01-08T11:44:09.679Z,63.23
2023-01-08T11:46:56.365Z,62.03
2023-01-08T11:49:40.229Z,24.17
2023-01-08T11:52:07.062Z,18.80
2023-01-08T11:54:40.089Z,18.97
2023-01-08T11:57:35.009Z,16.03
2023-01-08T12:00:14.265Z,14.33
2023-01-08T12:05:24.319Z,15.63
2023-01-08T12:08:20.490Z,14.85
2023-01-08T12:11:06.442Z,15.23
2023-01-08T12:13:47.961Z,14.63
2023-01-08T12:16:27.550Z,14.70
2023-01-08T12:19:06.597Z,15.77
2023-01-08T12:21:44.643Z,18.70
2023-01-08T12:24:14.370Z,22.83
2023-01-08T12:27:09.416Z,19.20
2023-01-08T12:29:52.498Z,20.00
2023-01-08T12:32:27.603Z,46.70
2023-01-08T12:35:10.719Z,19.73
2023-01-08T12:38:11.002Z,15.47
2023-01-08T12:40:46.169Z,16.07
2023-01-08T12:43:19.072Z,18.60
2023-01-08T12:45:48.698Z,16.10
2023-01-08T12:48:23.180Z,16.07
2023-01-08T12:50:59.818Z,20.50
2023-01-08T12:53:34.882Z,18.70
2023-01-08T12:56:21.336Z,17.70
2023-01-08T12:59:14.439Z,25.27
2023-01-08T13:02:08.979Z,33.13
2023-01-08T13:04:41.613Z,42.57
2023-01-08T13:07:32.290Z,26.67
2023-01-08T13:10:20.347Z,33.00
2023-01-08T13:12:51.607Z,22.93
2023-01-08T13:15:22.344Z,21.23
2023-01-08T13:17:55.156Z,19.70
2023-01-08T13:20:29.047Z,18.30
2023-01-08T13:23:01.719Z,20.43
2023-01-08T13:25:36.395Z,16.70
2023-01-08T13:28:25.146Z,14.60
2023-01-08T13:33:47.207Z,15.23
2023-01-08T13:36:29.399Z,17.30
2023-01-08T13:39:10.149Z,17.00
2023-01-08T13:41:42.608Z,14.90
2023-01-08T13:44:20.578Z,15.70
2023-01-08T13:47:04.740Z,15.60
2023-01-08T13:49:46.681Z,15.57
2023-01-08T13:52:42.764Z,12.23
2023-01-08T13:55:15.190Z,17.43
2023-01-08T13:57:46.574Z,15.23
2023-01-08T14:00:43.200Z,16.67
2023-01-08T14:03:35.334Z,13.27
2023-01-08T14:06:06.953Z,15.87
2023-01-08T14:08:34.463Z,16.43
2023-01-08T14:11:04.322Z,14.70
2023-01-08T14:13:35.755Z,15.73
2023-01-08T14:16:05.972Z,16.20
2023-01-08T14:18:33.397Z,16.67
2023-01-08T14:21:00.350Z,14.90
2023-01-08T14:23:32.118Z,15.90
2023-01-08T14:26:06.408Z,15.67
2023-01-08T14:28:33.622Z,15.30
2023-01-08T14:31:00.798Z,15.97
2023-01-08T14:33:34.752Z,30.00
2023-01-08T14:36:03.952Z,19.30
2023-01-08T14:38:31.229Z,25.90
2023-01-08T14:41:03.813Z,16.40
2023-01-08T14:43:38.870Z,16.00
2023-01-08T14:46:32.245Z,17.27
2023-01-08T14:48:59.635Z,15.13
2023-01-08T14:51:29.583Z,16.00
2023-01-08T14:54:03.719Z,15.90
2023-01-08T14:56:33.530Z,14.83
2023-01-08T14:59:07.428Z,16.13
2023-01-08T15:01:35.186Z,14.67
2023-01-08T15:04:06.893Z,19.37
2023-01-08T15:06:34.034Z,17.23
2023-01-08T15:09:01.382Z,15.47
2023-01-08T15:11:32.127Z,18.27
2023-01-08T15:14:00.770Z,22.83
2023-01-08T15:16:44.622Z,29.23
2023-01-08T15:19:46.608Z,28.00
2023-01-08T15:22:19.001Z,34.07
2023-01-08T15:24:58.328Z,34.93
2023-01-08T15:27:25.689Z,39.30
2023-01-08T15:29:59.897Z,37.20
2023-01-08T15:32:31.373Z,33.67
2023-01-08T15:34:58.951Z,35.23
2023-01-08T15:37:25.865Z,34.63
2023-01-08T15:39:53.755Z,36.10
2023-01-08T15:42:42.360Z,31.43
2023-01-08T15:45:13.394Z,33.25
2023-01-08T15:47:40.285Z,41.17
2023-01-08T15:50:07.870Z,39.77
2023-01-08T15:52:37.784Z,43.20
2023-01-08T15:55:05.638Z,40.37
2023-01-08T15:57:32.791Z,39.03
2023-01-08T16:00:00.048Z,42.37
2023-01-08T16:02:27.079Z,36.23
2023-01-08T16:04:56.066Z,38.47
2023-01-08T16:07:23.301Z,32.33
2023-01-08T16:09:50.514Z,29.10
2023-01-08T16:12:17.383Z,28.67
2023-01-08T16:14:44.605Z,32.37
2023-01-08T16:17:11.644Z,38.10
2023-01-08T16:19:38.918Z,35.23
2023-01-08T16:22:05.933Z,24.10
2023-01-08T16:24:34.136Z,19.57
2023-01-08T16:27:01.236Z,20.93
2023-01-08T16:29:28.708Z,20.57
2023-01-08T16:31:56.017Z,20.57
2023-01-08T16:34:24.211Z,21.60
2023-01-08T16:36:51.379Z,24.13
2023-01-08T16:39:19.383Z,25.30
2023-01-08T16:41:47.835Z,23.37
2023-01-08T16:44:20.871Z,23.77
2023-01-08T16:46:48.459Z,25.47
2023-01-08T16:49:16.112Z,23.40
2023-01-08T16:51:44.586Z,22.80
2023-01-08T16:54:13.345Z,21.90
2023-01-08T16:56:40.651Z,21.83
2023-01-08T16:59:18.270Z,21.60
2023-01-08T17:01:49.625Z,22.70
2023-01-08T17:04:17.484Z,23.63
2023-01-08T17:06:44.695Z,24.23
2023-01-08T17:09:12.001Z,37.30
2023-01-08T17:11:38.969Z,50.27
2023-01-08T17:14:06.253Z,41.97
2023-01-08T17:16:33.255Z,38.80
2023-01-08T17:19:00.504Z,35.93
2023-01-08T17:21:27.354Z,31.67
2023-01-08T17:23:54.581Z,29.13
2023-01-08T17:26:21.634Z,27.50
2023-01-08T17:28:48.921Z,33.67
2023-01-08T17:31:20.644Z,33.57
2023-01-08T17:33:52.306Z,38.67
2023-01-08T17:36:24.936Z,32.17
2023-01-08T17:38:55.062Z,30.60
2023-01-08T17:41:41.352Z,33.77
2023-01-08T17:44:11.871Z,37.37
2023-01-08T17:46:45.352Z,53.27
2023-01-08T17:49:14.288Z,46.03
2023-01-08T17:51:42.457Z,50.00
2023-01-08T17:54:15.277Z,42.78
2023-01-08T17:56:42.559Z,40.93
2023-01-08T17:59:14.295Z,33.80
2023-01-08T18:01:41.789Z,59.07
2023-01-08T18:04:09.112Z,91.27
2023-01-08T18:06:36.163Z,86.53
2023-01-08T18:09:04.455Z,87.60
2023-01-08T18:11:31.576Z,81.57
2023-01-08T18:14:01.526Z,96.57
2023-01-08T18:16:30.084Z,131.07
2023-01-08T18:18:58.372Z,104.60
2023-01-08T18:21:26.680Z,82.90
2023-01-08T18:23:54.270Z,74.20
2023-01-08T18:26:22.249Z,50.30
2023-01-08T18:28:49.496Z,75.47
2023-01-08T18:31:16.479Z,89.03
2023-01-08T18:33:44.137Z,87.67
2023-01-08T18:36:12.973Z,102.43
2023-01-08T18:38:42.673Z,86.00
2023-01-08T18:41:34.293Z,101.40
2023-01-08T18:44:02.748Z,96.93
2023-01-08T18:46:29.771Z,113.03
2023-01-08T18:48:57.065Z,110.47
2023-01-08T18:51:24.239Z,107.27
2023-01-08T18:53:51.528Z,111.33
2023-01-08T18:56:33.401Z,112.47
2023-01-08T18:59:01.109Z,111.80
2023-01-08T19:01:28.672Z,101.80
2023-01-08T19:03:56.373Z,98.23
2023-01-08T19:06:23.763Z,98.83
2023-01-08T19:08:51.668Z,102.27
2023-01-08T19:11:18.776Z,96.63
2023-01-08T19:13:46.031Z,97.83
2023-01-08T19:16:13.875Z,84.37
2023-01-08T19:18:41.458Z,105.13
2023-01-08T19:21:10.025Z,93.30
2023-01-08T19:23:37.284Z,91.85
2023-01-08T19:26:08.517Z,100.93
2023-01-08T19:28:36.272Z,94.87
2023-01-08T19:31:03.311Z,92.47
2023-01-08T19:33:30.902Z,94.40
2023-01-08T19:36:03.227Z,85.53
2023-01-08T19:38:30.486Z,83.73
2023-01-08T19:41:00.252Z,106.03
2023-01-08T19:43:42.754Z,99.53
2023-01-08T19:46:11.892Z,93.27
2023-01-08T19:48:40.348Z,71.87
2023-01-08T19:51:11.899Z,55.67
2023-01-08T19:53:40.049Z,57.70
2023-01-08T19:56:13.272Z,63.00
2023-01-08T19:58:40.827Z,67.37
2023-01-08T20:01:16.435Z,58.33
2023-01-08T20:03:44.597Z,48.33
2023-01-08T20:06:16.370Z,51.17
2023-01-08T20:08:46.144Z,56.97
2023-01-08T20:11:15.606Z,56.73
2023-01-08T20:13:43.757Z,51.03
2023-01-08T20:16:17.345Z,46.00
2023-01-08T20:18:44.667Z,36.20
2023-01-08T20:21:16.854Z,33.47
2023-01-08T20:23:45.228Z,31.00
2023-01-08T20:26:18.344Z,33.87
2023-01-08T20:28:46.565Z,30.70
2023-01-08T20:31:16.058Z,33.43
2023-01-08T20:33:44.432Z,32.60
2023-01-08T20:36:17.474Z,30.60
2023-01-08T20:38:45.705Z,29.20
2023-01-08T20:41:13.133Z,34.27
2023-01-08T20:43:41.104Z,31.07
2023-01-08T20:46:10.403Z,33.03
2023-01-08T20:48:47.039Z,34.03
2023-01-08T20:51:14.996Z,34.03
2023-01-08T20:53:42.332Z,35.03
2023-01-08T20:56:12.750Z,32.27
2023-01-08T20:58:42.294Z,34.93
2023-01-08T21:03:39.808Z,35.00
2023-01-08T21:06:08.999Z,38.10
2023-01-08T21:08:37.035Z,36.07
2023-01-08T21:11:06.231Z,35.53
2023-01-08T21:13:34.171Z,36.50
2023-01-08T21:16:09.734Z,34.60
2023-01-08T21:18:40.476Z,33.93
2023-01-08T21:21:08.142Z,34.67
2023-01-08T21:23:35.423Z,33.17
2023-01-08T21:26:05.717Z,32.17
2023-01-08T21:28:33.429Z,30.43
2023-01-08T21:31:06.987Z,34.50
2023-01-08T21:33:34.471Z,31.73
2023-01-08T21:36:07.104Z,28.30
2023-01-08T21:38:35.016Z,28.07
2023-01-08T21:41:04.438Z,47.97
2023-01-08T21:43:50.776Z,42.03
2023-01-08T21:46:17.957Z,42.43
2023-01-08T21:48:50.011Z,41.17
2023-01-08T21:51:36.073Z,34.33
2023-01-08T21:54:03.860Z,30.93
2023-01-08T21:56:31.310Z,26.60
2023-01-08T21:58:58.719Z,25.97
2023-01-08T22:01:25.713Z,23.30
2023-01-08T22:03:53.046Z,23.33
2023-01-08T22:06:19.994Z,23.53
2023-01-08T22:08:51.733Z,22.63
2023-01-08T22:11:19.227Z,22.37
2023-01-08T22:13:46.400Z,22.13
2023-01-08T22:16:13.789Z,24.07
2023-01-08T22:18:41.334Z,24.07
2023-01-08T22:21:11.002Z,22.60
2023-01-08T22:23:38.523Z,23.40
2023-01-08T22:26:07.142Z,22.90
2023-01-08T22:28:34.936Z,22.27
2023-01-08T22:31:12.411Z,23.57
2023-01-08T22:33:40.391Z,24.53
2023-01-08T22:36:10.541Z,21.90
2023-01-08T22:38:38.299Z,21.73
2023-01-08T22:41:10.921Z,23.27
2023-01-08T22:43:38.053Z,21.70
2023-01-08T22:46:05.086Z,22.53
2023-01-08T22:48:32.554Z,21.20
2023-01-08T22:51:03.543Z,22.93
2023-01-08T22:53:30.708Z,24.70
2023-01-08T22:55:57.602Z,26.47
2023-01-08T22:58:24.908Z,24.77
2023-01-08T23:00:51.774Z,23.83
2023-01-08T23:03:18.993Z,25.27
2023-01-08T23:05:45.855Z,24.47
2023-01-08T23:08:13.051Z,25.33
2023-01-08T23:10:40.038Z,25.17
2023-01-08T23:13:07.298Z,24.93
2023-01-08T23:15:34.241Z,26.13
2023-01-08T23:18:01.409Z,26.30
2023-01-08T23:20:28.264Z,27.77
2023-01-08T23:22:55.421Z,39.07
2023-01-08T23:25:22.241Z,25.67
2023-01-08T23:27:49.434Z,25.03
2023-01-08T23:30:16.586Z,25.17
2023-01-08T23:32:43.785Z,19.53
2023-01-08T23:35:10.735Z,18.53
2023-01-08T23:37:38.015Z,18.23
2023-01-08T23:40:05.263Z,16.73
2023-01-08T23:42:32.545Z,16.30
2023-01-08T23:44:59.433Z,16.93
2023-01-08T23:47:26.613Z,17.00
2023-01-08T23:49:53.489Z,17.17
2023-01-08T23:52:20.696Z,17.20
2023-01-08T23:54:47.684Z,17.27
2023-01-08T23:57:14.888Z,17.67
2023-01-08T23:59:41.856Z,15.23
